createdAt,value
2023-06-30T00:01:49.527Z,10.57
2023-06-30T00:04:20.290Z,10.60
2023-06-30T00:06:50.740Z,10.90
2023-06-30T00:09:20.277Z,10.82
2023-06-30T00:11:51.418Z,10.85
2023-06-30T00:14:19.666Z,11.57
2023-06-30T00:16:48.253Z,11.15
2023-06-30T00:19:16.540Z,11.40
2023-06-30T00:21:46.141Z,10.38
2023-06-30T00:24:15.012Z,11.70
2023-06-30T00:26:43.340Z,9.93
2023-06-30T00:29:14.256Z,10.80
2023-06-30T00:31:42.461Z,11.68
2023-06-30T00:34:10.799Z,10.65
2023-06-30T00:36:38.915Z,11.32
2023-06-30T00:39:08.438Z,11.80
2023-06-30T00:41:36.551Z,12.30
2023-06-30T00:44:05.244Z,11.77
2023-06-30T00:46:34.325Z,11.30
2023-06-30T00:49:03.128Z,12.95
2023-06-30T00:51:31.559Z,11.85
2023-06-30T00:53:59.767Z,11.88
2023-06-30T00:56:29.309Z,10.70
2023-06-30T00:58:58.282Z,12.18
2023-06-30T01:01:43.574Z,12.55
2023-06-30T01:04:20.226Z,12.05
2023-06-30T01:07:00.792Z,11.40
2023-06-30T01:09:36.034Z,12.40
2023-06-30T01:12:07.134Z,11.98
2023-06-30T01:14:36.926Z,13.05
2023-06-30T01:17:07.925Z,11.93
2023-06-30T01:19:45.681Z,12.10
2023-06-30T01:22:25.374Z,13.00
2023-06-30T01:24:58.856Z,12.70
2023-06-30T01:27:28.874Z,13.40
2023-06-30T01:29:58.519Z,12.68
2023-06-30T01:32:27.484Z,12.52
2023-06-30T01:34:55.663Z,12.95
2023-06-30T01:37:23.932Z,12.02
2023-06-30T01:39:52.119Z,12.60
2023-06-30T01:42:21.478Z,12.02
2023-06-30T01:44:52.805Z,11.95
2023-06-30T01:47:21.431Z,11.63
2023-06-30T01:49:49.852Z,12.07
2023-06-30T01:52:18.284Z,12.52
2023-06-30T01:54:46.592Z,11.98
2023-06-30T01:57:14.712Z,11.90
2023-06-30T01:59:42.881Z,11.65
2023-06-30T02:02:13.327Z,11.60
2023-06-30T02:04:41.474Z,12.23
2023-06-30T02:07:09.635Z,12.23
2023-06-30T02:09:47.273Z,12.15
2023-06-30T02:12:16.661Z,13.07
2023-06-30T02:14:44.957Z,12.75
2023-06-30T02:17:14.858Z,12.70
2023-06-30T02:19:43.464Z,11.40
2023-06-30T02:22:11.695Z,12.48
2023-06-30T02:24:39.828Z,12.68
2023-06-30T02:27:09.858Z,12.40
2023-06-30T02:29:38.082Z,11.98
2023-06-30T02:32:07.048Z,11.27
2023-06-30T02:34:36.573Z,12.27
2023-06-30T02:37:05.160Z,12.65
2023-06-30T02:39:33.313Z,11.63
2023-06-30T02:42:01.501Z,12.63
2023-06-30T02:44:29.635Z,12.48
2023-06-30T02:46:57.815Z,11.90
2023-06-30T02:49:26.091Z,11.32
2023-06-30T02:51:55.695Z,11.60
2023-06-30T02:54:23.801Z,10.93
2023-06-30T02:56:51.939Z,10.60
2023-06-30T02:59:20.074Z,10.15
2023-06-30T03:01:48.285Z,11.10
2023-06-30T03:04:16.505Z,10.65
2023-06-30T03:06:44.724Z,10.93
2023-06-30T03:09:14.221Z,9.82
2023-06-30T03:11:42.360Z,10.32
2023-06-30T03:14:10.497Z,9.93
2023-06-30T03:16:38.798Z,10.88
2023-06-30T03:19:06.931Z,10.50
2023-06-30T03:21:36.178Z,10.15
2023-06-30T03:24:04.827Z,10.02
2023-06-30T03:26:34.497Z,9.90
2023-06-30T03:29:03.303Z,10.05
2023-06-30T03:31:31.850Z,9.77
2023-06-30T03:34:01.100Z,9.82
2023-06-30T03:36:29.571Z,9.88
2023-06-30T03:38:58.094Z,9.32
2023-06-30T03:41:27.990Z,10.13
2023-06-30T03:43:57.814Z,9.50
2023-06-30T03:46:26.006Z,9.75
2023-06-30T03:48:54.254Z,10.68
2023-06-30T03:51:22.451Z,9.60
2023-06-30T03:53:50.602Z,10.10
2023-06-30T03:56:18.797Z,10.52
2023-06-30T03:58:47.853Z,10.30
2023-06-30T04:01:17.446Z,10.80
2023-06-30T04:03:45.720Z,9.90
2023-06-30T04:06:13.997Z,10.52
2023-06-30T04:08:42.284Z,10.02
2023-06-30T04:11:10.446Z,10.35
2023-06-30T04:13:38.577Z,11.45
2023-06-30T04:16:07.179Z,9.98
2023-06-30T04:18:36.792Z,10.38
2023-06-30T04:21:05.027Z,10.77
2023-06-30T04:23:33.146Z,10.23
2023-06-30T04:26:01.919Z,11.15
2023-06-30T04:28:30.160Z,11.15
2023-06-30T04:30:59.516Z,11.38
2023-06-30T04:33:27.674Z,10.88
2023-06-30T04:35:57.223Z,12.40
2023-06-30T04:38:25.582Z,10.68
2023-06-30T04:40:53.815Z,10.85
2023-06-30T04:43:22.049Z,11.27
2023-06-30T04:45:50.422Z,10.50
2023-06-30T04:48:18.671Z,11.02
2023-06-30T04:50:46.959Z,11.75
2023-06-30T04:53:16.601Z,11.82
2023-06-30T04:55:45.095Z,12.02
2023-06-30T04:58:13.575Z,11.55
2023-06-30T05:00:43.913Z,11.38
2023-06-30T05:03:12.224Z,10.57
2023-06-30T05:05:40.453Z,11.68
2023-06-30T05:08:08.623Z,10.35
2023-06-30T05:10:38.700Z,10.93
2023-06-30T05:13:06.858Z,11.02
2023-06-30T05:15:34.990Z,10.93
2023-06-30T05:18:03.277Z,11.85
2023-06-30T05:20:33.257Z,10.75
2023-06-30T05:23:01.557Z,11.52
2023-06-30T05:25:29.744Z,12.45
2023-06-30T05:27:59.249Z,12.55
2023-06-30T05:30:27.494Z,11.10
2023-06-30T05:32:55.715Z,12.43
2023-06-30T05:35:23.911Z,11.75
2023-06-30T05:37:52.102Z,12.70
2023-06-30T05:40:20.735Z,12.00
2023-06-30T05:42:48.923Z,13.30
2023-06-30T05:45:18.786Z,11.73
2023-06-30T05:47:47.018Z,12.75
2023-06-30T05:50:15.232Z,11.52
2023-06-30T05:52:43.377Z,11.23
2023-06-30T05:55:11.517Z,12.38
2023-06-30T05:57:39.723Z,12.18
2023-06-30T06:00:09.993Z,12.60
2023-06-30T06:02:39.748Z,13.13
2023-06-30T06:05:09.068Z,12.95
2023-06-30T06:07:38.184Z,13.38
2023-06-30T06:10:08.266Z,12.38
2023-06-30T06:12:36.494Z,12.60
2023-06-30T06:15:05.256Z,12.35
2023-06-30T06:17:33.482Z,12.73
2023-06-30T06:20:03.489Z,13.32
2023-06-30T06:22:31.643Z,12.82
2023-06-30T06:24:59.807Z,11.02
2023-06-30T06:27:29.930Z,12.95
2023-06-30T06:29:58.072Z,11.98
2023-06-30T06:32:26.203Z,12.88
2023-06-30T06:34:54.369Z,12.50
2023-06-30T06:37:23.938Z,12.77
2023-06-30T06:39:52.086Z,13.13
2023-06-30T06:42:20.278Z,11.63
2023-06-30T06:44:48.454Z,11.85
2023-06-30T06:48:14.623Z,11.93
2023-06-30T06:50:42.788Z,12.80
2023-06-30T06:53:12.609Z,13.65
2023-06-30T06:55:40.760Z,13.73
2023-06-30T06:58:08.888Z,13.93
2023-06-30T07:00:37.036Z,13.25
2023-06-30T07:03:05.443Z,12.23
2023-06-30T07:05:33.575Z,14.13
2023-06-30T07:08:01.749Z,14.45
2023-06-30T07:10:32.239Z,16.75
2023-06-30T07:13:00.510Z,14.40
2023-06-30T07:15:28.679Z,16.13
2023-06-30T07:17:58.208Z,16.08
2023-06-30T07:20:26.935Z,15.48
2023-06-30T07:22:57.876Z,14.32
2023-06-30T07:25:26.826Z,15.68
2023-06-30T07:27:58.242Z,16.17
2023-06-30T07:30:28.519Z,15.73
2023-06-30T07:32:57.561Z,15.63
2023-06-30T07:35:26.371Z,14.43
2023-06-30T07:37:54.521Z,13.70
2023-06-30T07:40:24.168Z,13.63
2023-06-30T07:42:54.415Z,14.32
2023-06-30T07:45:24.215Z,13.48
2023-06-30T07:47:53.281Z,13.35
2023-06-30T07:50:21.611Z,13.38
2023-06-30T07:52:51.249Z,12.95
2023-06-30T07:55:20.479Z,14.20
2023-06-30T07:57:50.527Z,14.60
2023-06-30T08:00:19.878Z,14.18
2023-06-30T08:02:50.101Z,12.77
2023-06-30T08:05:18.596Z,13.15
2023-06-30T08:07:50.453Z,14.63
2023-06-30T08:10:19.816Z,14.60
2023-06-30T08:12:48.288Z,13.68
2023-06-30T08:15:16.689Z,13.55
2023-06-30T08:17:51.864Z,12.35
2023-06-30T08:20:26.062Z,12.18
2023-06-30T08:22:55.070Z,13.95
2023-06-30T08:25:25.218Z,12.55
2023-06-30T08:27:54.311Z,12.93
2023-06-30T08:30:24.910Z,13.38
2023-06-30T08:32:55.820Z,13.95
2023-06-30T08:35:26.726Z,13.73
2023-06-30T08:37:54.882Z,13.15
2023-06-30T08:40:30.369Z,14.27
2023-06-30T08:43:03.747Z,13.07
2023-06-30T08:45:32.142Z,13.65
2023-06-30T08:48:07.022Z,14.30
2023-06-30T08:50:37.536Z,14.95
2023-06-30T08:53:07.003Z,13.30
2023-06-30T08:55:38.031Z,14.68
2023-06-30T08:58:13.422Z,15.40
2023-06-30T09:00:49.519Z,15.45
2023-06-30T09:03:18.150Z,15.95
2023-06-30T09:05:49.910Z,16.70
2023-06-30T09:08:24.489Z,16.70
2023-06-30T09:10:56.085Z,17.02
2023-06-30T09:13:26.732Z,16.15
2023-06-30T09:15:59.828Z,15.70
2023-06-30T09:18:28.632Z,15.77
2023-06-30T09:20:58.381Z,16.58
2023-06-30T09:23:28.467Z,16.60
2023-06-30T09:25:56.667Z,14.45
2023-06-30T09:28:24.787Z,15.52
2023-06-30T09:30:52.958Z,17.13
2023-06-30T09:33:21.946Z,16.20
2023-06-30T09:35:51.254Z,17.17
2023-06-30T09:38:22.324Z,16.08
2023-06-30T09:40:52.394Z,16.45
2023-06-30T09:43:23.392Z,16.77
2023-06-30T09:45:58.006Z,16.92
2023-06-30T09:48:31.982Z,17.23
2023-06-30T09:51:00.456Z,16.67
2023-06-30T09:53:37.697Z,17.25
2023-06-30T09:56:07.014Z,18.13
2023-06-30T09:58:37.080Z,17.08
2023-06-30T10:01:05.340Z,17.13
2023-06-30T10:03:33.866Z,18.60
2023-06-30T10:06:02.669Z,18.67
2023-06-30T10:08:33.542Z,18.55
2023-06-30T10:11:01.852Z,17.70
2023-06-30T10:13:31.100Z,19.33
2023-06-30T10:16:00.371Z,18.15
2023-06-30T10:18:29.066Z,18.55
2023-06-30T10:20:57.327Z,20.25
2023-06-30T10:23:28.210Z,17.80
2023-06-30T10:25:58.833Z,18.33
2023-06-30T10:28:27.832Z,17.75
2023-06-30T10:30:56.319Z,18.27
2023-06-30T10:33:24.550Z,18.50
2023-06-30T10:35:54.351Z,18.73
2023-06-30T10:38:23.483Z,18.70
2023-06-30T10:40:51.723Z,19.00
2023-06-30T10:43:21.244Z,18.40
2023-06-30T10:46:11.547Z,18.27
2023-06-30T10:48:42.425Z,19.88
2023-06-30T10:51:14.573Z,19.33
2023-06-30T10:53:45.899Z,20.17
2023-06-30T10:56:14.258Z,20.73
2023-06-30T10:58:44.932Z,20.42
2023-06-30T11:01:16.794Z,19.73
2023-06-30T11:04:21.298Z,19.40
2023-06-30T11:07:05.386Z,20.50
2023-06-30T11:09:59.638Z,19.77
2023-06-30T11:12:29.885Z,19.75
2023-06-30T11:15:01.710Z,19.08
2023-06-30T11:18:00.971Z,19.35
2023-06-30T11:20:30.896Z,17.90
2023-06-30T11:23:01.954Z,17.88
2023-06-30T11:25:32.080Z,17.08
2023-06-30T11:28:02.805Z,16.17
2023-06-30T11:30:37.315Z,17.42
2023-06-30T11:33:08.622Z,17.60
2023-06-30T11:35:38.414Z,17.10
2023-06-30T11:38:10.228Z,17.38
2023-06-30T11:40:47.677Z,17.42
2023-06-30T11:43:16.344Z,17.80
2023-06-30T11:45:57.194Z,17.58
2023-06-30T11:48:25.471Z,15.68
2023-06-30T11:50:53.685Z,16.38
2023-06-30T11:53:22.041Z,16.38
2023-06-30T11:55:52.195Z,15.27
2023-06-30T11:58:20.991Z,15.02
2023-06-30T12:00:50.523Z,14.70
2023-06-30T12:03:19.187Z,13.32
2023-06-30T12:05:58.081Z,12.10
2023-06-30T12:08:30.164Z,11.45
2023-06-30T12:10:58.460Z,10.90
2023-06-30T12:13:30.164Z,12.20
2023-06-30T12:16:01.127Z,12.45
2023-06-30T12:18:37.784Z,12.35
2023-06-30T12:21:11.863Z,13.20
2023-06-30T12:23:44.554Z,12.95
2023-06-30T12:26:13.613Z,13.80
2023-06-30T12:28:43.582Z,12.70
2023-06-30T12:31:13.481Z,12.15
2023-06-30T12:33:41.715Z,14.13
2023-06-30T12:36:09.982Z,14.18
2023-06-30T12:38:38.198Z,12.00
2023-06-30T12:41:06.342Z,12.32
2023-06-30T12:43:35.478Z,12.10
2023-06-30T12:46:03.756Z,11.50
2023-06-30T12:48:33.915Z,11.05
2023-06-30T12:51:02.504Z,10.93
2023-06-30T12:53:30.807Z,11.10
2023-06-30T12:55:58.993Z,10.63
2023-06-30T12:58:28.394Z,9.45
2023-06-30T13:01:00.924Z,8.35
2023-06-30T13:03:30.613Z,7.72
2023-06-30T13:06:00.329Z,7.28
2023-06-30T13:08:28.489Z,6.03
2023-06-30T13:10:57.210Z,7.60
2023-06-30T13:13:25.431Z,7.38
2023-06-30T13:15:54.272Z,7.85
2023-06-30T13:18:22.454Z,8.30
2023-06-30T13:20:50.667Z,8.05
2023-06-30T13:23:28.066Z,9.05
2023-06-30T13:26:04.451Z,8.90
2023-06-30T13:28:33.110Z,8.93
2023-06-30T13:31:01.428Z,8.90
2023-06-30T13:33:29.626Z,9.55
2023-06-30T13:35:57.849Z,9.13
2023-06-30T13:38:30.188Z,9.18
2023-06-30T13:40:58.364Z,10.90
2023-06-30T13:43:26.535Z,10.57
2023-06-30T13:45:56.740Z,11.68
2023-06-30T13:48:24.942Z,12.30
2023-06-30T13:50:53.136Z,12.05
2023-06-30T13:53:21.698Z,12.10
2023-06-30T13:55:53.855Z,12.65
2023-06-30T13:58:22.052Z,13.35
2023-06-30T14:00:50.409Z,11.18
2023-06-30T14:03:18.614Z,9.40
2023-06-30T14:05:50.195Z,8.48
2023-06-30T14:08:18.930Z,7.75
2023-06-30T14:10:47.310Z,8.48
2023-06-30T14:13:17.152Z,8.55
2023-06-30T14:15:45.700Z,7.90
2023-06-30T14:18:14.208Z,8.15
2023-06-30T14:20:44.155Z,9.35
2023-06-30T14:23:12.465Z,8.45
2023-06-30T14:25:40.646Z,7.78
2023-06-30T14:28:09.117Z,6.60
2023-06-30T14:30:38.642Z,6.43
2023-06-30T14:33:06.906Z,6.65
2023-06-30T14:35:35.206Z,7.10
2023-06-30T14:38:03.918Z,7.07
2023-06-30T14:40:32.210Z,7.13
2023-06-30T14:43:01.546Z,6.45
2023-06-30T14:45:31.161Z,6.88
2023-06-30T14:48:00.756Z,7.15
2023-06-30T14:50:28.930Z,6.65
2023-06-30T14:52:57.079Z,7.15
2023-06-30T14:55:25.345Z,6.88
2023-06-30T14:57:53.918Z,6.03
2023-06-30T15:00:22.250Z,6.50
2023-06-30T15:02:50.631Z,5.85
2023-06-30T15:05:20.357Z,5.55
2023-06-30T15:07:48.646Z,5.32
2023-06-30T15:10:16.828Z,5.00
2023-06-30T15:12:44.942Z,4.30
2023-06-30T15:15:13.134Z,3.88
2023-06-30T15:17:41.395Z,4.30
2023-06-30T15:20:10.609Z,4.07
2023-06-30T15:22:40.207Z,4.60
2023-06-30T15:25:09.312Z,4.30
2023-06-30T15:27:37.510Z,4.63
2023-06-30T15:30:07.250Z,4.72
2023-06-30T15:32:35.631Z,4.28
2023-06-30T15:35:05.871Z,4.32
2023-06-30T15:37:34.072Z,4.15
2023-06-30T15:40:04.073Z,3.63
2023-06-30T15:42:32.805Z,3.88
2023-06-30T15:45:01.321Z,3.33
2023-06-30T15:47:29.579Z,3.85
2023-06-30T15:49:57.848Z,3.80
2023-06-30T15:52:26.071Z,3.92
2023-06-30T15:55:13.608Z,3.70
2023-06-30T15:57:42.210Z,4.10
2023-06-30T16:00:13.330Z,4.60
2023-06-30T16:02:41.770Z,4.30
2023-06-30T16:05:11.050Z,4.60
2023-06-30T16:07:39.434Z,3.92
2023-06-30T16:10:08.749Z,4.03
2023-06-30T16:12:38.320Z,3.50
2023-06-30T16:15:09.175Z,3.55
2023-06-30T16:17:37.863Z,3.20
2023-06-30T16:20:07.715Z,3.38
2023-06-30T16:22:35.958Z,3.05
2023-06-30T16:25:04.157Z,3.08
2023-06-30T16:27:32.365Z,3.20
2023-06-30T16:30:27.545Z,2.80
2023-06-30T16:32:59.013Z,3.20
2023-06-30T16:35:28.044Z,3.00
2023-06-30T16:37:58.086Z,2.90
2023-06-30T16:40:26.220Z,2.70
2023-06-30T16:42:54.811Z,2.80
2023-06-30T16:45:25.242Z,3.08
2023-06-30T16:47:53.879Z,2.75
2023-06-30T16:50:22.230Z,3.30
2023-06-30T16:52:51.553Z,3.33
2023-06-30T16:55:19.884Z,3.90
2023-06-30T16:57:49.072Z,3.50
2023-06-30T17:00:18.615Z,3.97
2023-06-30T17:02:49.904Z,3.70
2023-06-30T17:05:18.503Z,3.47
2023-06-30T17:07:46.804Z,4.28
2023-06-30T17:10:15.114Z,4.15
2023-06-30T17:12:43.275Z,4.20
2023-06-30T17:15:12.192Z,4.10
2023-06-30T17:17:40.385Z,4.68
2023-06-30T17:20:11.163Z,4.25
2023-06-30T17:22:39.506Z,3.90
2023-06-30T17:25:09.168Z,3.92
2023-06-30T17:27:37.342Z,4.13
2023-06-30T17:30:06.508Z,4.13
2023-06-30T17:32:34.744Z,3.70
2023-06-30T17:35:03.259Z,3.97
2023-06-30T17:37:32.830Z,3.55
2023-06-30T17:40:01.094Z,3.67
2023-06-30T17:42:29.277Z,3.85
2023-06-30T17:44:57.462Z,4.05
2023-06-30T17:47:25.653Z,3.80
2023-06-30T17:49:53.962Z,4.72
2023-06-30T17:52:22.200Z,6.50
2023-06-30T17:54:51.727Z,4.38
2023-06-30T17:57:19.902Z,3.88
2023-06-30T17:59:48.101Z,4.05
2023-06-30T18:02:16.636Z,3.72
2023-06-30T18:04:44.954Z,4.00
2023-06-30T18:07:14.229Z,3.97
2023-06-30T18:09:45.501Z,4.18
2023-06-30T18:12:15.331Z,4.50
2023-06-30T18:14:44.320Z,3.90
2023-06-30T18:17:12.855Z,4.07
2023-06-30T18:19:42.210Z,4.20
2023-06-30T18:22:10.707Z,4.45
2023-06-30T18:24:38.920Z,4.75
2023-06-30T18:27:07.409Z,4.50
2023-06-30T18:29:38.693Z,4.97
2023-06-30T18:32:08.366Z,5.13
2023-06-30T18:34:36.589Z,4.97
2023-06-30T18:37:08.231Z,4.78
2023-06-30T18:39:36.465Z,4.57
2023-06-30T18:42:05.147Z,4.90
2023-06-30T18:44:35.984Z,5.10
2023-06-30T18:47:06.713Z,4.75
2023-06-30T18:49:35.298Z,4.88
2023-06-30T18:52:03.802Z,5.13
2023-06-30T18:54:32.009Z,5.10
2023-06-30T18:57:00.224Z,4.43
2023-06-30T18:59:28.396Z,4.35
2023-06-30T19:01:56.587Z,4.30
2023-06-30T19:04:26.404Z,4.28
2023-06-30T19:06:54.620Z,4.30
2023-06-30T19:09:22.785Z,4.13
2023-06-30T19:11:51.008Z,4.60
2023-06-30T19:14:19.169Z,4.57
2023-06-30T19:16:47.391Z,4.30
2023-06-30T19:19:15.700Z,4.10
2023-06-30T19:21:45.376Z,4.68
2023-06-30T19:24:14.744Z,4.15
2023-06-30T19:26:42.934Z,3.90
2023-06-30T19:29:11.128Z,3.80
2023-06-30T19:31:39.426Z,4.93
2023-06-30T19:34:07.607Z,4.10
2023-06-30T19:36:37.550Z,4.60
2023-06-30T19:39:07.780Z,4.47
2023-06-30T19:41:36.011Z,4.68
2023-06-30T19:44:05.339Z,4.22
2023-06-30T19:46:35.126Z,3.70
2023-06-30T19:49:03.344Z,4.40
2023-06-30T19:51:31.558Z,4.05
2023-06-30T19:53:59.774Z,4.30
2023-06-30T19:56:29.307Z,4.47
2023-06-30T19:58:57.528Z,4.28
2023-06-30T20:01:26.863Z,4.72
2023-06-30T20:03:55.820Z,5.07
2023-06-30T20:06:24.073Z,4.60
2023-06-30T20:08:52.227Z,5.05
2023-06-30T20:11:20.620Z,5.35
2023-06-30T20:13:50.173Z,5.28
2023-06-30T20:16:18.492Z,5.55
2023-06-30T20:18:46.688Z,5.40
2023-06-30T20:21:14.896Z,4.82
2023-06-30T20:23:43.031Z,5.25
2023-06-30T20:26:11.204Z,5.68
2023-06-30T20:28:39.334Z,5.30
2023-06-30T20:31:08.948Z,5.80
2023-06-30T20:33:37.401Z,5.57
2023-06-30T20:36:05.807Z,5.43
2023-06-30T20:38:34.063Z,4.97
2023-06-30T20:41:02.272Z,5.40
2023-06-30T20:43:30.550Z,5.32
2023-06-30T20:45:58.731Z,5.43
2023-06-30T20:48:28.362Z,5.50
2023-06-30T20:50:56.497Z,5.00
2023-06-30T20:53:24.763Z,5.65
2023-06-30T20:55:56.004Z,5.70
2023-06-30T20:58:24.203Z,5.57
2023-06-30T21:00:52.467Z,6.20
2023-06-30T21:03:20.711Z,5.32
2023-06-30T21:05:50.286Z,6.03
2023-06-30T21:08:18.498Z,5.57
2023-06-30T21:10:47.105Z,5.93
2023-06-30T21:13:15.574Z,5.50
2023-06-30T21:15:43.802Z,5.90
2023-06-30T21:18:12.281Z,5.55
2023-06-30T21:20:40.470Z,5.35
2023-06-30T21:23:10.001Z,5.20
2023-06-30T21:25:38.154Z,5.70
2023-06-30T21:28:06.444Z,5.55
2023-06-30T21:30:34.582Z,5.05
2023-06-30T21:33:04.252Z,5.70
2023-06-30T21:35:34.020Z,5.40
2023-06-30T21:38:02.174Z,5.70
2023-06-30T21:40:31.696Z,5.60
2023-06-30T21:42:59.808Z,5.60
2023-06-30T21:45:27.976Z,5.68
2023-06-30T21:47:56.132Z,6.22
2023-06-30T21:50:24.312Z,7.38
2023-06-30T21:52:52.465Z,6.50
2023-06-30T21:55:21.067Z,8.82
2023-06-30T21:57:50.685Z,7.10
2023-06-30T22:00:19.539Z,6.43
2023-06-30T22:02:56.189Z,6.72
2023-06-30T22:05:24.619Z,6.32
2023-06-30T22:07:52.789Z,5.78
2023-06-30T22:10:21.012Z,5.88
2023-06-30T22:12:50.533Z,5.70
2023-06-30T22:15:20.682Z,6.03
2023-06-30T22:17:52.345Z,5.90
2023-06-30T22:20:22.771Z,6.18
2023-06-30T22:22:50.949Z,5.97
2023-06-30T22:25:21.202Z,6.32
2023-06-30T22:27:53.908Z,7.07
2023-06-30T22:30:22.280Z,6.60
2023-06-30T22:32:50.760Z,6.82
2023-06-30T22:35:18.979Z,7.10
2023-06-30T22:37:47.192Z,6.70
2023-06-30T22:40:17.026Z,7.43
2023-06-30T22:42:45.342Z,7.70
2023-06-30T22:45:20.981Z,7.05
2023-06-30T22:47:52.844Z,7.60
2023-06-30T22:50:33.981Z,7.82
2023-06-30T22:53:17.900Z,8.38
2023-06-30T22:56:11.934Z,7.95
2023-06-30T22:58:45.996Z,8.13
2023-06-30T23:01:19.957Z,8.70
2023-06-30T23:03:56.423Z,8.32
2023-06-30T23:06:33.799Z,8.90
2023-06-30T23:09:11.009Z,9.27
2023-06-30T23:11:47.996Z,10.02
2023-06-30T23:14:24.774Z,10.20
2023-06-30T23:17:28.179Z,8.60
2023-06-30T23:20:46.795Z,9.60
2023-06-30T23:23:37.416Z,8.93
2023-06-30T23:26:15.163Z,9.35
2023-06-30T23:28:53.772Z,9.95
2023-06-30T23:39:48.132Z,16.85
2023-06-30T23:42:16.414Z,15.27
2023-06-30T23:44:44.576Z,13.27
2023-06-30T23:47:17.837Z,11.43
2023-06-30T23:49:48.328Z,10.85
2023-06-30T23:52:17.342Z,10.35
2023-06-30T23:54:46.865Z,9.90
2023-06-30T23:57:14.998Z,10.18
2023-06-30T23:59:43.228Z,10.00
